Overview Statistics Trail Chart Weather Telemetry Raw packets
 

This is the latest recevied weather packets stored in our database for station/object KC1HBM. If no packets are shown the sender has not sent any weather packets the latest 10 day(s).

<< 1 2 3 4 >>
Time Temp. Humidity Pressure Rain* Wind** Luminosity Snow
1788627970 20° C 84% 1008.4 hPa 0 mm - 77 W/m² -
1788627665 20.56° C 84% 1008.3 hPa 0 mm - 101 W/m² -
1788627360 20.56° C 86% 1008.3 hPa 0 mm - 130 W/m² -
1788627055 20.56° C 86% 1008.4 hPa 0 mm - 307 W/m² -
1788626750 20° C 88% 1008.4 hPa 0 mm - 272 W/m² -
1788626444 19.44° C 89% 1008.5 hPa 0 mm - 285 W/m² -
1788626140 18.89° C 94% 1008.6 hPa 0 mm - 235 W/m² -
1788625836 18.89° C 97% 1008.7 hPa 0 mm - 184 W/m² -
1788625532 18.33° C 97% 1008.7 hPa 0 mm - 153 W/m² -
1788625227 17.78° C 97% 1008.9 hPa 0 mm - 150 W/m² -
1788624926 17.78° C 97% 1008.7 hPa 0 mm - 95 W/m² -
1788624624 17.78° C 96% 1008.8 hPa 1.78 mm - 63 W/m² -
1788624318 17.78° C 94% 1008.8 hPa 1.78 mm - 37 W/m² -
1788624018 18.89° C 92% 1008.8 hPa 0 mm - 46 W/m² -
1788623718 20° C 84% 1008.8 hPa 0 mm - 33 W/m² -
1788623416 20° C 82% 1008.4 hPa 0 mm - 56 W/m² -
1788623112 20° C 82% 1008.3 hPa 0 mm - 134 W/m² -
1788622807 20.56° C 81% 1008.3 hPa 0 mm - 49 W/m² -
1788622503 20.56° C 80% 1008.3 hPa 0 mm - 32 W/m² -
1788622203 21.11° C 78% 1008.3 hPa 0 mm - 88 W/m² -
1788621903 21.11° C 79% 1008.4 hPa 0 mm - 328 W/m² -
1788621597 20.56° C 84% 1008.4 hPa 0 mm - 598 W/m² -
1788621292 20.56° C 83% 1008.4 hPa 0 mm - 132 W/m² -
1788620987 20.56° C 82% 1008.3 hPa 0 mm - 129 W/m² -
1788620710 20° C 83% 1008.4 hPa 0 mm - 124 W/m² -

* Rain latest hour (hover to see other rain measurements)
** Current wind speed in m/s (hover to see current wind gust speed)